KCKM/CKM METAR and TAF weather

Enter ICAO airport designator
Station Type Date Time Source
KCKM METAR 2020/06/03 22:35 UTC NOAA

KCKM 032235Z AUTO 00000KT 10SM 33/19 A2988 RMK A01


Station Type Date Time Source
KCKM Decoded METAR 2020/06/03 22:35 UTC NOAA

Station name not available
Jun 03, 2020 - 06:35 PM EDT / 2020.06.03 2235 UTC
Wind: Calm:0
Visibility: 10 mile(s):0
Temperature: 91 F (33 C)
Dew Point: 66 F (19 C)
Relative Humidity: 43%
Pressure (altimeter): 29.88 in. Hg (1011 hPa)
ob: KCKM 032235Z AUTO 00000KT 10SM 33/19 A2988 RMK A01
cycle: 22

Station Type Date Time Source
KCKM TAF UTC NOAA

Error!

Example: see airport list